createdAt,value
2023-12-03T00:01:15.090Z,50.80
2023-12-03T00:04:01.737Z,51.10
2023-12-03T00:06:31.871Z,30.90
2023-12-03T00:09:03.417Z,40.10
2023-12-03T00:11:32.561Z,23.10
2023-12-03T00:14:02.528Z,23.00
2023-12-03T00:16:35.126Z,23.10
2023-12-03T00:19:06.765Z,22.70
2023-12-03T00:21:39.498Z,18.80
2023-12-03T00:24:09.698Z,19.90
2023-12-03T00:26:40.108Z,19.70
2023-12-03T00:29:15.297Z,21.20
2023-12-03T00:31:46.259Z,20.80
2023-12-03T00:34:20.201Z,19.50
2023-12-03T00:36:49.532Z,20.00
2023-12-03T00:39:18.519Z,20.80
2023-12-03T00:41:50.281Z,22.60
2023-12-03T00:44:20.231Z,19.80
2023-12-03T00:46:50.447Z,22.80
2023-12-03T00:49:23.040Z,23.10
2023-12-03T00:51:53.222Z,22.90
2023-12-03T00:54:22.944Z,20.00
2023-12-03T00:56:55.055Z,20.30
2023-12-03T00:59:26.135Z,17.10
2023-12-03T01:01:56.177Z,18.30
2023-12-03T01:04:27.956Z,18.40
2023-12-03T01:06:58.069Z,19.00
2023-12-03T01:09:34.993Z,18.30
2023-12-03T01:12:05.555Z,20.80
2023-12-03T01:14:34.639Z,19.10
2023-12-03T01:17:05.029Z,21.60
2023-12-03T01:19:34.069Z,21.30
2023-12-03T01:22:05.522Z,18.10
2023-12-03T01:24:35.824Z,16.50
2023-12-03T01:27:06.951Z,18.50
2023-12-03T01:29:38.250Z,18.00
2023-12-03T01:32:11.128Z,17.90
2023-12-03T01:34:41.729Z,20.50
2023-12-03T01:37:14.825Z,20.30
2023-12-03T01:39:44.242Z,19.00
2023-12-03T01:42:19.943Z,20.10
2023-12-03T01:44:53.221Z,20.80
2023-12-03T01:47:23.728Z,21.30
2023-12-03T01:49:56.649Z,20.60
2023-12-03T01:52:27.835Z,22.40
2023-12-03T01:55:01.136Z,22.40
2023-12-03T01:57:33.923Z,22.50
2023-12-03T02:00:06.064Z,21.30
2023-12-03T02:02:43.193Z,20.40
2023-12-03T02:05:15.124Z,19.90
2023-12-03T02:07:46.649Z,23.30
2023-12-03T02:10:21.238Z,21.30
2023-12-03T02:12:50.455Z,25.30
2023-12-03T02:15:19.377Z,24.00
2023-12-03T02:17:53.374Z,22.50
2023-12-03T02:20:27.202Z,23.00
2023-12-03T02:23:01.250Z,24.40
2023-12-03T02:25:32.629Z,22.20
2023-12-03T02:28:03.253Z,22.00
2023-12-03T02:30:33.230Z,20.40
2023-12-03T02:33:04.484Z,25.40
2023-12-03T02:35:35.906Z,25.90
2023-12-03T02:38:07.056Z,26.20
2023-12-03T02:40:39.280Z,36.60
2023-12-03T02:43:09.769Z,51.30
2023-12-03T02:45:39.184Z,42.40
2023-12-03T02:48:12.590Z,34.20
2023-12-03T02:50:41.749Z,42.50
2023-12-03T02:53:12.904Z,42.00
2023-12-03T02:55:44.228Z,43.80
2023-12-03T02:58:14.447Z,38.70
2023-12-03T03:00:46.230Z,28.60
2023-12-03T03:03:19.277Z,36.70
2023-12-03T03:05:50.209Z,34.10
2023-12-03T03:08:21.087Z,31.30
2023-12-03T03:10:51.746Z,31.00
2023-12-03T03:13:22.282Z,22.10
2023-12-03T03:15:53.272Z,20.20
2023-12-03T03:18:23.765Z,19.70
2023-12-03T03:20:57.639Z,17.00
2023-12-03T03:23:29.504Z,20.10
2023-12-03T03:26:00.135Z,18.30
2023-12-03T03:28:29.809Z,20.20
2023-12-03T03:31:02.379Z,17.50
2023-12-03T03:33:33.158Z,19.90
2023-12-03T03:36:03.051Z,19.30
2023-12-03T03:38:34.489Z,19.50
2023-12-03T03:41:03.940Z,23.00
2023-12-03T03:43:34.618Z,22.70
2023-12-03T03:46:04.579Z,23.00
2023-12-03T03:48:39.757Z,25.20
2023-12-03T03:51:10.196Z,22.70
2023-12-03T03:53:39.412Z,22.80
2023-12-03T03:56:10.799Z,23.80
2023-12-03T03:58:40.150Z,23.60
2023-12-03T04:01:12.705Z,23.30
2023-12-03T04:03:45.203Z,24.10
2023-12-03T04:06:14.355Z,27.70
2023-12-03T04:08:47.805Z,25.20
2023-12-03T04:11:20.121Z,24.80
2023-12-03T04:13:51.217Z,25.80
2023-12-03T04:16:24.273Z,27.50
2023-12-03T04:21:28.882Z,25.20
2023-12-03T04:23:58.940Z,23.60
2023-12-03T04:26:29.165Z,23.70
2023-12-03T04:28:58.555Z,23.60
2023-12-03T04:31:29.225Z,26.70
2023-12-03T04:34:00.109Z,26.70
2023-12-03T04:36:32.002Z,26.00
2023-12-03T04:39:02.660Z,28.10
2023-12-03T04:41:36.747Z,22.90
2023-12-03T04:44:07.520Z,26.40
2023-12-03T04:46:41.520Z,27.70
2023-12-03T04:49:12.174Z,27.30
2023-12-03T04:51:41.720Z,34.40
2023-12-03T04:54:11.855Z,31.50
2023-12-03T04:56:42.955Z,31.40
2023-12-03T04:59:13.513Z,30.20
2023-12-03T05:01:43.739Z,35.30
2023-12-03T05:04:17.716Z,31.30
2023-12-03T05:06:54.384Z,31.70
2023-12-03T05:09:52.325Z,31.40
2023-12-03T05:12:23.899Z,32.50
2023-12-03T05:14:54.920Z,31.50
2023-12-03T05:17:27.319Z,36.80
2023-12-03T05:19:58.018Z,36.60
2023-12-03T05:22:30.138Z,35.50
2023-12-03T05:24:59.558Z,35.10
2023-12-03T05:27:29.233Z,30.30
2023-12-03T05:30:00.683Z,33.30
2023-12-03T05:32:31.380Z,34.70
2023-12-03T05:35:02.209Z,40.80
2023-12-03T05:37:35.666Z,37.70
2023-12-03T05:40:06.190Z,37.40
2023-12-03T05:42:36.609Z,38.60
2023-12-03T05:45:06.435Z,41.70
2023-12-03T05:47:36.822Z,41.00
2023-12-03T05:50:08.346Z,43.10
2023-12-03T05:52:40.020Z,35.20
2023-12-03T05:55:09.792Z,40.60
2023-12-03T05:57:40.616Z,37.30
2023-12-03T06:00:10.648Z,41.80
2023-12-03T06:02:41.285Z,34.70
2023-12-03T06:05:11.519Z,33.80
2023-12-03T06:07:41.800Z,33.20
2023-12-03T06:10:12.125Z,39.60
2023-12-03T06:12:43.218Z,38.30
2023-12-03T06:15:13.737Z,36.70
2023-12-03T06:17:43.696Z,37.30
2023-12-03T06:20:13.431Z,49.60
2023-12-03T06:22:42.703Z,50.20
2023-12-03T06:25:12.091Z,49.70
2023-12-03T06:27:41.770Z,41.20
2023-12-03T06:30:11.633Z,39.20
2023-12-03T06:32:41.723Z,36.90
2023-12-03T06:35:12.936Z,37.90
2023-12-03T06:37:43.449Z,36.60
2023-12-03T06:40:13.924Z,34.90
2023-12-03T06:42:43.149Z,41.20
2023-12-03T06:45:15.089Z,40.20
2023-12-03T06:47:44.333Z,35.70
2023-12-03T06:50:15.459Z,36.10
2023-12-03T06:52:47.989Z,33.90
2023-12-03T06:55:17.691Z,31.50
2023-12-03T06:57:47.027Z,32.40
2023-12-03T07:00:17.158Z,34.00
2023-12-03T07:02:49.101Z,32.80
2023-12-03T07:05:19.036Z,37.70
2023-12-03T07:07:52.963Z,36.20
2023-12-03T07:10:48.745Z,36.50
2023-12-03T07:13:18.621Z,29.50
2023-12-03T07:15:52.470Z,28.70
2023-12-03T07:18:23.565Z,34.20
2023-12-03T07:20:55.515Z,27.00
2023-12-03T07:23:26.558Z,29.80
2023-12-03T07:25:56.472Z,34.00
2023-12-03T07:28:28.960Z,29.40
2023-12-03T07:30:58.769Z,31.50
2023-12-03T07:33:29.570Z,37.10
2023-12-03T07:36:00.774Z,38.20
2023-12-03T07:38:34.901Z,36.20
2023-12-03T07:41:10.032Z,34.70
2023-12-03T07:43:42.007Z,34.40
2023-12-03T07:46:23.879Z,36.80
2023-12-03T07:48:54.467Z,31.60
2023-12-03T07:51:28.157Z,32.00
2023-12-03T07:54:00.138Z,34.40
2023-12-03T07:56:41.421Z,34.60
2023-12-03T07:59:13.480Z,35.30
2023-12-03T08:01:44.014Z,35.70
2023-12-03T08:04:19.042Z,30.70
2023-12-03T08:07:02.472Z,29.20
2023-12-03T08:09:33.746Z,30.50
2023-12-03T08:12:11.728Z,29.50
2023-12-03T08:14:51.231Z,31.80
2023-12-03T08:17:22.977Z,33.00
2023-12-03T08:19:52.791Z,48.90
2023-12-03T08:22:36.300Z,25.90
2023-12-03T08:25:12.058Z,23.10
2023-12-03T08:27:45.768Z,15.50
2023-12-03T08:30:16.557Z,12.70
2023-12-03T08:32:54.305Z,12.80
2023-12-03T09:32:51.542Z,3.50
2023-12-03T09:35:55.535Z,3.80
2023-12-03T09:38:31.657Z,4.20
2023-12-03T09:45:26.356Z,3.90
2023-12-03T09:48:13.722Z,5.10
2023-12-03T09:50:46.598Z,4.20
2023-12-03T09:53:19.004Z,4.30
2023-12-03T09:55:58.372Z,5.30
2023-12-03T09:58:29.798Z,15.00
2023-12-03T10:01:06.380Z,4.10
2023-12-03T10:03:37.431Z,3.80
2023-12-03T10:06:09.509Z,5.00
2023-12-03T10:08:45.737Z,5.10
2023-12-03T10:15:44.321Z,7.40
2023-12-03T10:18:21.075Z,9.40
2023-12-03T10:21:19.983Z,11.70
2023-12-03T10:24:08.376Z,9.00
2023-12-03T10:26:40.148Z,9.20
2023-12-03T10:29:11.003Z,7.30
2023-12-03T10:31:42.054Z,7.60
2023-12-03T10:34:15.065Z,5.70
2023-12-03T10:36:46.629Z,6.00
2023-12-03T10:39:21.111Z,5.90
2023-12-03T10:41:53.731Z,6.80
2023-12-03T10:44:27.882Z,10.10
2023-12-03T10:47:04.989Z,10.60
2023-12-03T10:49:38.486Z,9.60
2023-12-03T10:52:09.329Z,9.50
2023-12-03T10:54:40.106Z,10.10
2023-12-03T10:57:11.013Z,25.00
2023-12-03T10:59:44.764Z,16.40
2023-12-03T11:02:18.189Z,17.10
2023-12-03T11:05:17.845Z,14.90
2023-12-03T11:07:48.525Z,15.00
2023-12-03T11:10:21.154Z,18.00
2023-12-03T11:12:51.187Z,13.10
2023-12-03T11:15:24.346Z,12.50
2023-12-03T11:17:53.857Z,12.50
2023-12-03T11:20:29.215Z,12.60
2023-12-03T11:23:40.200Z,13.60
2023-12-03T11:26:15.676Z,9.90
2023-12-03T11:28:57.477Z,10.30
2023-12-03T11:31:30.163Z,10.00
2023-12-03T11:34:02.450Z,10.50
2023-12-03T11:39:09.802Z,10.90
2023-12-03T11:41:44.681Z,11.50
2023-12-03T11:44:23.088Z,12.30
2023-12-03T11:47:11.211Z,11.40
2023-12-03T11:49:44.587Z,8.40
2023-12-03T11:52:15.813Z,10.10
2023-12-03T11:55:09.792Z,7.50
2023-12-03T11:57:40.675Z,11.10
2023-12-03T12:00:14.159Z,10.30
2023-12-03T12:02:44.774Z,11.20
2023-12-03T12:05:15.726Z,11.50
2023-12-03T12:08:02.923Z,11.00
2023-12-03T12:10:36.611Z,10.40
2023-12-03T12:13:08.156Z,10.30
2023-12-03T12:15:38.783Z,9.70
2023-12-03T12:18:12.958Z,11.80
2023-12-03T12:20:44.552Z,9.70
2023-12-03T12:23:14.695Z,8.50
2023-12-03T12:25:48.654Z,11.80
2023-12-03T12:28:20.456Z,9.50
2023-12-03T12:30:51.362Z,8.80
2023-12-03T12:33:21.610Z,8.20
2023-12-03T12:35:53.678Z,8.60
2023-12-03T12:38:24.694Z,7.80
2023-12-03T12:40:58.005Z,10.20
2023-12-03T12:43:29.005Z,10.40
2023-12-03T12:46:10.781Z,8.70
2023-12-03T12:48:43.688Z,9.30
2023-12-03T12:51:26.020Z,10.40
2023-12-03T12:54:03.187Z,10.00
2023-12-03T12:56:34.589Z,11.50
2023-12-03T12:59:05.509Z,10.10
2023-12-03T13:01:37.475Z,11.60
2023-12-03T13:04:10.448Z,8.20
2023-12-03T13:06:41.092Z,10.10
2023-12-03T13:09:16.657Z,9.30
2023-12-03T13:11:50.904Z,8.60
2023-12-03T13:14:22.312Z,11.10
2023-12-03T13:16:55.593Z,11.00
2023-12-03T13:19:26.699Z,10.10
2023-12-03T13:22:00.756Z,10.00
2023-12-03T13:24:34.104Z,11.80
2023-12-03T13:27:04.810Z,12.10
2023-12-03T13:29:37.885Z,12.40
2023-12-03T13:32:07.709Z,11.90
2023-12-03T13:34:39.888Z,9.40
2023-12-03T13:39:44.627Z,9.10
2023-12-03T13:42:15.827Z,8.60
2023-12-03T13:44:44.978Z,8.00
2023-12-03T13:48:04.989Z,7.60
2023-12-03T13:50:41.895Z,6.90
2023-12-03T13:53:13.638Z,7.70
2023-12-03T13:55:46.353Z,8.20
2023-12-03T13:58:42.085Z,7.30
2023-12-03T14:01:15.010Z,6.50
2023-12-03T14:03:46.382Z,7.70
2023-12-03T14:06:17.580Z,7.80
2023-12-03T14:08:48.901Z,9.00
2023-12-03T14:11:47.060Z,8.50
2023-12-03T14:14:22.950Z,8.40
2023-12-03T14:16:59.658Z,7.60
2023-12-03T14:19:31.266Z,9.90
2023-12-03T14:22:01.048Z,8.00
2023-12-03T14:24:31.808Z,6.10
2023-12-03T14:27:01.493Z,8.10
2023-12-03T14:29:30.723Z,7.70
2023-12-03T14:32:00.161Z,10.80
2023-12-03T14:34:30.588Z,8.00
2023-12-03T14:37:01.587Z,7.70
2023-12-03T14:39:32.574Z,8.80
2023-12-03T14:42:05.152Z,7.60
2023-12-03T14:44:36.134Z,8.20
2023-12-03T14:47:08.638Z,7.50
2023-12-03T14:49:39.332Z,9.70
2023-12-03T14:52:10.350Z,8.70
2023-12-03T14:54:42.432Z,6.00
2023-12-03T14:57:11.570Z,8.90
2023-12-03T14:59:40.920Z,8.80
2023-12-03T15:02:15.524Z,8.50
2023-12-03T15:07:18.199Z,7.90
2023-12-03T15:10:18.201Z,8.80
2023-12-03T15:12:47.969Z,9.20
2023-12-03T15:15:20.954Z,8.50
2023-12-03T15:17:51.797Z,8.70
2023-12-03T15:20:24.538Z,10.50
2023-12-03T15:22:54.792Z,9.00
2023-12-03T15:25:24.840Z,10.90
2023-12-03T15:27:53.922Z,8.10
2023-12-03T15:30:25.852Z,11.00
2023-12-03T15:32:58.095Z,13.50
2023-12-03T15:35:27.292Z,10.90
2023-12-03T15:37:56.879Z,9.90
2023-12-03T15:40:27.133Z,8.50
2023-12-03T15:42:56.951Z,10.50
2023-12-03T15:45:27.114Z,12.60
2023-12-03T15:48:01.099Z,11.70
2023-12-03T15:50:31.237Z,10.80
2023-12-03T15:53:04.293Z,10.50
2023-12-03T15:55:34.505Z,10.70
2023-12-03T15:58:07.620Z,11.20
2023-12-03T16:00:48.881Z,12.70
2023-12-03T16:03:27.806Z,11.60
2023-12-03T16:05:59.612Z,11.50
2023-12-03T16:08:41.182Z,14.50
2023-12-03T16:11:18.762Z,11.10
2023-12-03T16:13:49.962Z,13.00
2023-12-03T16:16:20.359Z,11.80
2023-12-03T16:18:53.928Z,11.80
2023-12-03T16:21:24.198Z,12.20
2023-12-03T16:23:56.586Z,11.00
2023-12-03T16:26:25.810Z,11.80
2023-12-03T16:28:55.945Z,12.60
2023-12-03T16:31:32.017Z,10.20
2023-12-03T16:34:04.206Z,10.90
2023-12-03T16:36:36.899Z,12.10
2023-12-03T16:39:10.824Z,11.10
2023-12-03T16:41:40.773Z,11.10
2023-12-03T16:44:17.342Z,11.60
2023-12-03T16:47:02.819Z,11.60
2023-12-03T16:49:32.535Z,10.00
2023-12-03T16:52:13.596Z,11.20
2023-12-03T16:54:45.806Z,13.20
2023-12-03T16:57:31.355Z,12.90
2023-12-03T17:00:03.465Z,10.90
2023-12-03T17:02:35.274Z,12.40
2023-12-03T17:05:09.567Z,13.70
2023-12-03T17:07:45.270Z,15.10
2023-12-03T17:13:14.103Z,14.30
2023-12-03T17:15:46.147Z,13.30
2023-12-03T17:18:18.523Z,13.70
2023-12-03T17:20:54.435Z,11.00
2023-12-03T17:23:24.496Z,12.60
2023-12-03T17:25:56.651Z,14.50
2023-12-03T17:28:30.421Z,14.20
2023-12-03T17:31:02.893Z,12.90
2023-12-03T17:33:34.988Z,11.00
2023-12-03T17:36:08.675Z,12.10
2023-12-03T17:38:40.532Z,12.20
2023-12-03T17:41:12.358Z,12.90
2023-12-03T17:44:04.416Z,15.00
2023-12-03T17:46:38.513Z,13.00
2023-12-03T17:49:10.195Z,12.30
2023-12-03T17:51:51.230Z,12.00
2023-12-03T17:54:26.919Z,9.60
2023-12-03T17:56:58.886Z,13.20
2023-12-03T17:59:30.807Z,10.10
2023-12-03T18:02:05.427Z,12.50
2023-12-03T18:04:42.696Z,12.40
2023-12-03T18:07:23.204Z,11.00
2023-12-03T18:09:56.834Z,13.00
2023-12-03T18:12:30.242Z,12.70
2023-12-03T18:15:04.464Z,13.00
2023-12-03T18:17:39.702Z,11.90
2023-12-03T18:20:12.498Z,11.60
2023-12-03T18:22:48.065Z,12.50
2023-12-03T18:25:23.828Z,13.70
2023-12-03T18:27:56.987Z,12.60
2023-12-03T18:30:39.423Z,13.30
2023-12-03T18:33:19.069Z,13.30
2023-12-03T18:35:52.679Z,12.10
2023-12-03T18:38:26.817Z,12.60
2023-12-03T18:41:01.448Z,15.80
2023-12-03T18:43:33.233Z,14.60
2023-12-03T18:46:08.707Z,12.30
2023-12-03T18:48:44.349Z,14.70
2023-12-03T18:51:16.081Z,12.00
2023-12-03T18:53:50.841Z,12.40
2023-12-03T18:56:29.186Z,15.20
2023-12-03T18:59:02.689Z,12.20
2023-12-03T19:01:35.552Z,13.40
2023-12-03T19:04:10.826Z,13.10
2023-12-03T19:06:49.483Z,12.10
2023-12-03T19:09:37.606Z,13.10
2023-12-03T19:12:18.065Z,14.50
2023-12-03T19:14:56.599Z,12.70
2023-12-03T19:17:32.960Z,11.80
2023-12-03T19:20:05.634Z,12.40
2023-12-03T19:22:37.218Z,11.70
2023-12-03T19:25:08.571Z,13.40
2023-12-03T19:27:39.696Z,14.20
2023-12-03T19:30:11.902Z,13.60
2023-12-03T19:32:42.379Z,12.50
2023-12-03T19:35:13.627Z,13.30
2023-12-03T19:37:45.456Z,14.70
2023-12-03T19:40:23.173Z,13.60
2023-12-03T19:42:57.389Z,13.50
2023-12-03T19:45:29.967Z,17.10
2023-12-03T19:48:10.247Z,15.40
2023-12-03T19:50:45.020Z,15.60
2023-12-03T19:53:17.607Z,21.00
2023-12-03T19:55:52.121Z,19.60
2023-12-03T19:58:23.167Z,14.10
2023-12-03T20:00:56.768Z,16.60
2023-12-03T20:03:29.922Z,16.50
2023-12-03T20:06:01.507Z,17.50
2023-12-03T20:08:33.082Z,17.70
2023-12-03T20:11:28.652Z,15.90
2023-12-03T20:13:59.488Z,15.90
2023-12-03T20:16:31.755Z,20.50
2023-12-03T20:19:02.191Z,18.00
2023-12-03T20:21:34.092Z,16.90
2023-12-03T20:24:09.610Z,16.90
2023-12-03T20:26:42.334Z,15.90
2023-12-03T20:29:14.184Z,25.40
2023-12-03T20:31:46.156Z,14.10
2023-12-03T20:34:17.674Z,15.30
2023-12-03T20:36:52.652Z,13.10
2023-12-03T20:39:23.660Z,15.10
2023-12-03T20:41:56.742Z,19.00
2023-12-03T20:44:28.220Z,17.60
2023-12-03T20:47:01.476Z,17.50
2023-12-03T20:49:33.682Z,15.30
2023-12-03T20:52:06.346Z,13.20
2023-12-03T20:54:40.529Z,13.00
2023-12-03T20:57:12.859Z,12.40
2023-12-03T20:59:45.716Z,11.90
2023-12-03T21:02:17.961Z,13.10
2023-12-03T21:04:49.910Z,11.00
2023-12-03T21:07:21.142Z,10.50
2023-12-03T21:09:59.209Z,12.00
2023-12-03T21:12:29.956Z,12.30
2023-12-03T21:15:01.501Z,10.40
2023-12-03T21:17:32.112Z,9.10
2023-12-03T21:20:04.457Z,10.00
2023-12-03T21:22:35.275Z,10.00
2023-12-03T21:25:06.835Z,8.60
2023-12-03T21:27:38.243Z,9.50
2023-12-03T21:30:11.026Z,9.30
2023-12-03T21:32:43.578Z,9.00
2023-12-03T21:35:14.039Z,7.40
2023-12-03T21:37:47.531Z,9.50
2023-12-03T21:40:18.631Z,8.20
2023-12-03T21:42:51.529Z,7.10
2023-12-03T21:45:23.707Z,7.70
2023-12-03T21:47:53.876Z,6.80
2023-12-03T21:50:24.460Z,7.60
2023-12-03T21:52:55.999Z,8.30
2023-12-03T21:55:26.954Z,9.00
2023-12-03T21:57:56.897Z,9.60
2023-12-03T22:00:28.333Z,7.60
2023-12-03T22:02:58.170Z,8.00
2023-12-03T22:05:31.145Z,10.10
2023-12-03T22:08:03.838Z,12.40
2023-12-03T22:10:36.512Z,12.50
2023-12-03T22:13:07.616Z,14.70
2023-12-03T22:15:38.747Z,14.00
2023-12-03T22:18:09.265Z,12.40
2023-12-03T22:20:39.358Z,13.40
2023-12-03T22:23:08.773Z,15.00
2023-12-03T22:25:40.602Z,10.00
2023-12-03T22:28:12.140Z,9.10
2023-12-03T22:30:42.953Z,9.40
2023-12-03T22:33:15.002Z,8.20
2023-12-03T22:35:44.360Z,13.70
2023-12-03T22:38:15.420Z,10.40
2023-12-03T22:40:45.998Z,6.40
2023-12-03T22:43:17.658Z,7.50
2023-12-03T22:45:48.114Z,8.60
2023-12-03T22:48:19.439Z,12.40
2023-12-03T22:50:50.339Z,8.40
2023-12-03T22:53:20.983Z,7.70
2023-12-03T22:55:51.781Z,6.90
2023-12-03T22:58:22.168Z,7.40
2023-12-03T23:00:51.349Z,9.40
2023-12-03T23:03:23.402Z,9.20
2023-12-03T23:05:53.441Z,8.10
2023-12-03T23:08:25.821Z,10.40
2023-12-03T23:11:00.520Z,7.30
2023-12-03T23:13:30.361Z,5.50
2023-12-03T23:16:03.336Z,7.10
2023-12-03T23:18:34.876Z,6.90
2023-12-03T23:21:07.171Z,8.70
2023-12-03T23:23:37.312Z,6.90
2023-12-03T23:26:09.899Z,7.30
2023-12-03T23:28:41.189Z,5.30
2023-12-03T23:31:12.044Z,6.50
2023-12-03T23:33:42.322Z,5.80
2023-12-03T23:36:13.911Z,6.70
2023-12-03T23:38:45.059Z,5.40
2023-12-03T23:41:15.788Z,5.20
2023-12-03T23:43:45.157Z,4.80
2023-12-03T23:46:17.595Z,5.90
2023-12-03T23:48:48.908Z,4.90
2023-12-03T23:51:20.741Z,6.40
2023-12-03T23:53:54.620Z,6.90
2023-12-03T23:56:28.052Z,6.50
2023-12-03T23:58:59.720Z,5.40
